sensor_id;sensor_type;location;lat;lon;timestamp;pressure;altitude;pressure_sealevel;temperature;humidity
41513;BME280;27244;59.940;30.280;2023-08-01T00:13:17;100533.53;;;24.63;55.05
41513;BME280;27244;59.940;30.280;2023-08-01T00:15:44;100527.91;;;24.50;55.74
41513;BME280;27244;59.940;30.280;2023-08-01T00:18:11;100520.81;;;24.45;54.70
41513;BME280;27244;59.940;30.280;2023-08-01T00:20:38;100522.50;;;24.43;55.13
41513;BME280;27244;59.940;30.280;2023-08-01T00:23:07;100556.53;;;24.61;55.34
41513;BME280;27244;59.940;30.280;2023-08-01T00:25:34;100562.53;;;24.63;54.73
41513;BME280;27244;59.940;30.280;2023-08-01T00:28:01;100548.88;;;24.49;54.87
41513;BME280;27244;59.940;30.280;2023-08-01T00:30:29;100536.16;;;24.44;54.96
41513;BME280;27244;59.940;30.280;2023-08-01T00:32:57;100529.06;;;24.40;54.91
41513;BME280;27244;59.940;30.280;2023-08-01T00:35:24;100546.06;;;24.49;54.82
41513;BME280;27244;59.940;30.280;2023-08-01T00:37:51;100525.91;;;24.38;55.35
41513;BME280;27244;59.940;30.280;2023-08-01T00:40:18;100544.03;;;24.49;54.97
41513;BME280;27244;59.940;30.280;2023-08-01T00:42:45;100533.59;;;24.37;55.18
41513;BME280;27244;59.940;30.280;2023-08-01T00:45:12;100528.75;;;24.38;55.12
41513;BME280;27244;59.940;30.280;2023-08-01T00:47:41;100558.34;;;24.55;55.51
41513;BME280;27244;59.940;30.280;2023-08-01T00:50:09;100524.91;;;24.32;55.06
41513;BME280;27244;59.940;30.280;2023-08-01T00:52:36;100547.31;;;24.48;55.04
41513;BME280;27244;59.940;30.280;2023-08-01T00:55:04;100551.69;;;24.49;55.40
41513;BME280;27244;59.940;30.280;2023-08-01T00:57:31;100552.50;;;24.49;54.93
41513;BME280;27244;59.940;30.280;2023-08-01T00:59:59;100542.59;;;24.45;55.06
41513;BME280;27244;59.940;30.280;2023-08-01T01:02:26;100537.31;;;24.34;55.27
41513;BME280;27244;59.940;30.280;2023-08-01T01:04:55;100548.69;;;24.43;55.01
41513;BME280;27244;59.940;30.280;2023-08-01T01:07:23;100545.41;;;24.45;54.73
41513;BME280;27244;59.940;30.280;2023-08-01T01:09:51;100516.69;;;24.25;54.87
41513;BME280;27244;59.940;30.280;2023-08-01T01:12:18;100506.63;;;24.24;54.74
41513;BME280;27244;59.940;30.280;2023-08-01T01:14:46;100516.25;;;24.26;54.92
41513;BME280;27244;59.940;30.280;2023-08-01T01:17:13;100519.50;;;24.25;54.92
41513;BME280;27244;59.940;30.280;2023-08-01T01:19:40;100533.81;;;24.30;54.40
41513;BME280;27244;59.940;30.280;2023-08-01T01:22:10;100539.91;;;24.29;54.52
41513;BME280;27244;59.940;30.280;2023-08-01T01:24:38;100529.66;;;24.22;54.72
41513;BME280;27244;59.940;30.280;2023-08-01T01:27:07;100552.41;;;24.28;54.70
41513;BME280;27244;59.940;30.280;2023-08-01T01:29:35;100543.28;;;24.24;54.74
41513;BME280;27244;59.940;30.280;2023-08-01T01:32:05;100555.91;;;24.32;54.39
41513;BME280;27244;59.940;30.280;2023-08-01T01:34:33;100549.72;;;24.24;54.35
41513;BME280;27244;59.940;30.280;2023-08-01T01:37:00;100561.53;;;24.32;54.29
41513;BME280;27244;59.940;30.280;2023-08-01T01:39:30;100536.22;;;24.19;54.37
41513;BME280;27244;59.940;30.280;2023-08-01T01:41:57;100534.63;;;24.18;54.64
41513;BME280;27244;59.940;30.280;2023-08-01T01:44:24;100548.59;;;24.22;54.27
41513;BME280;27244;59.940;30.280;2023-08-01T01:46:52;100561.78;;;24.37;54.35
41513;BME280;27244;59.940;30.280;2023-08-01T01:49:19;100534.06;;;24.23;54.27
41513;BME280;27244;59.940;30.280;2023-08-01T01:51:46;100537.22;;;24.25;54.08
41513;BME280;27244;59.940;30.280;2023-08-01T01:54:13;100554.13;;;24.38;54.42
41513;BME280;27244;59.940;30.280;2023-08-01T01:56:42;100544.75;;;24.28;54.33
41513;BME280;27244;59.940;30.280;2023-08-01T01:59:09;100522.56;;;24.18;54.31
41513;BME280;27244;59.940;30.280;2023-08-01T02:01:36;100547.25;;;24.26;54.11
41513;BME280;27244;59.940;30.280;2023-08-01T02:04:04;100540.13;;;24.22;54.06
41513;BME280;27244;59.940;30.280;2023-08-01T02:06:31;100565.03;;;24.36;53.98
41513;BME280;27244;59.940;30.280;2023-08-01T02:08:59;100547.91;;;24.18;53.92
41513;BME280;27244;59.940;30.280;2023-08-01T02:11:28;100543.50;;;24.17;53.97
41513;BME280;27244;59.940;30.280;2023-08-01T02:13:57;100565.38;;;24.38;54.24
41513;BME280;27244;59.940;30.280;2023-08-01T02:16:24;100555.34;;;24.24;54.17
41513;BME280;27244;59.940;30.280;2023-08-01T02:18:52;100537.88;;;24.17;53.72
41513;BME280;27244;59.940;30.280;2023-08-01T02:21:19;100570.69;;;24.36;53.98
41513;BME280;27244;59.940;30.280;2023-08-01T02:23:46;100547.00;;;24.21;54.17
41513;BME280;27244;59.940;30.280;2023-08-01T02:26:14;100549.81;;;24.21;54.08
41513;BME280;27244;59.940;30.280;2023-08-01T02:28:43;100564.84;;;24.30;54.01
41513;BME280;27244;59.940;30.280;2023-08-01T02:31:12;100555.69;;;24.26;54.08
41513;BME280;27244;59.940;30.280;2023-08-01T02:33:39;100528.88;;;24.09;54.16
41513;BME280;27244;59.940;30.280;2023-08-01T02:36:07;100551.28;;;24.25;54.15
41513;BME280;27244;59.940;30.280;2023-08-01T02:38:34;100552.09;;;24.26;54.14
41513;BME280;27244;59.940;30.280;2023-08-01T02:41:01;100546.47;;;24.26;53.83
41513;BME280;27244;59.940;30.280;2023-08-01T02:43:28;100534.31;;;24.16;53.97
41513;BME280;27244;59.940;30.280;2023-08-01T02:45:55;100534.75;;;24.15;53.91
41513;BME280;27244;59.940;30.280;2023-08-01T02:48:26;100543.50;;;24.17;53.90
41513;BME280;27244;59.940;30.280;2023-08-01T02:50:53;100558.06;;;24.28;54.31
41513;BME280;27244;59.940;30.280;2023-08-01T02:53:21;100546.34;;;24.17;54.19
41513;BME280;27244;59.940;30.280;2023-08-01T02:55:48;100541.84;;;24.19;53.97
41513;BME280;27244;59.940;30.280;2023-08-01T02:58:15;100539.47;;;24.18;54.18
41513;BME280;27244;59.940;30.280;2023-08-01T03:00:42;100556.81;;;24.29;54.19
41513;BME280;27244;59.940;30.280;2023-08-01T03:03:10;100548.16;;;24.23;54.40
41513;BME280;27244;59.940;30.280;2023-08-01T03:05:38;100561.91;;;24.34;54.33
41513;BME280;27244;59.940;30.280;2023-08-01T03:08:06;100539.69;;;24.23;54.52
41513;BME280;27244;59.940;30.280;2023-08-01T03:10:34;100525.13;;;24.12;54.66
41513;BME280;27244;59.940;30.280;2023-08-01T03:13:01;100560.56;;;24.26;54.74
41513;BME280;27244;59.940;30.280;2023-08-01T03:15:29;100544.31;;;24.17;54.40
41513;BME280;27244;59.940;30.280;2023-08-01T03:17:56;100564.84;;;24.30;54.60
41513;BME280;27244;59.940;30.280;2023-08-01T03:20:23;100546.81;;;24.15;54.79
41513;BME280;27244;59.940;30.280;2023-08-01T03:22:52;100539.94;;;24.16;54.36
41513;BME280;27244;59.940;30.280;2023-08-01T03:25:19;100533.72;;;24.09;54.22
41513;BME280;27244;59.940;30.280;2023-08-01T03:27:46;100552.09;;;24.13;54.41
41513;BME280;27244;59.940;30.280;2023-08-01T03:30:13;100546.81;;;24.15;54.86
41513;BME280;27244;59.940;30.280;2023-08-01T03:32:41;100546.53;;;24.10;54.48
41513;BME280;27244;59.940;30.280;2023-08-01T03:35:08;100531.00;;;24.05;54.50
41513;BME280;27244;59.940;30.280;2023-08-01T03:37:35;100546.69;;;24.19;54.57
41513;BME280;27244;59.940;30.280;2023-08-01T03:40:06;100567.31;;;24.28;54.31
41513;BME280;27244;59.940;30.280;2023-08-01T03:42:35;100550.97;;;24.23;54.45
41513;BME280;27244;59.940;30.280;2023-08-01T03:45:03;100556.94;;;24.25;54.35
41513;BME280;27244;59.940;30.280;2023-08-01T03:47:31;100548.91;;;24.11;54.23
41513;BME280;27244;59.940;30.280;2023-08-01T03:49:58;100561.78;;;24.25;54.24
41513;BME280;27244;59.940;30.280;2023-08-01T03:52:26;100561.47;;;24.23;54.50
41513;BME280;27244;59.940;30.280;2023-08-01T03:54:54;100555.94;;;24.19;54.59
41513;BME280;27244;59.940;30.280;2023-08-01T03:57:23;100539.34;;;24.09;54.33
41513;BME280;27244;59.940;30.280;2023-08-01T03:59:52;100567.31;;;24.28;54.37
41513;BME280;27244;59.940;30.280;2023-08-01T04:02:20;100575.75;;;24.28;54.54
41513;BME280;27244;59.940;30.280;2023-08-01T04:04:51;100539.66;;;24.11;54.50
41513;BME280;27244;59.940;30.280;2023-08-01T04:07:19;100527.03;;;24.02;54.47
41513;BME280;27244;59.940;30.280;2023-08-01T04:09:46;100518.03;;;24.08;54.85
41513;BME280;27244;59.940;30.280;2023-08-01T04:12:14;100540.47;;;24.24;54.44
41513;BME280;27244;59.940;30.280;2023-08-01T04:14:45;100532.91;;;24.21;54.54
41513;BME280;27244;59.940;30.280;2023-08-01T04:17:12;100519.94;;;24.11;55.07
41513;BME280;27244;59.940;30.280;2023-08-01T04:19:42;100548.72;;;24.31;54.84
41513;BME280;27244;59.940;30.280;2023-08-01T04:22:09;100553.56;;;24.30;54.97
41513;BME280;27244;59.940;30.280;2023-08-01T04:24:37;100522.75;;;24.11;55.04
41513;BME280;27244;59.940;30.280;2023-08-01T04:27:04;100527.59;;;24.10;55.03
41513;BME280;27244;59.940;30.280;2023-08-01T04:29:34;100514.88;;;24.06;55.64
41513;BME280;27244;59.940;30.280;2023-08-01T04:32:04;100557.16;;;24.31;55.27
41513;BME280;27244;59.940;30.280;2023-08-01T04:34:31;100549.28;;;24.26;55.33
41513;BME280;27244;59.940;30.280;2023-08-01T04:36:58;100527.53;;;24.14;55.28
41513;BME280;27244;59.940;30.280;2023-08-01T04:39:25;100527.06;;;24.15;55.24
41513;BME280;27244;59.940;30.280;2023-08-01T04:41:53;100554.00;;;24.29;55.30
41513;BME280;27244;59.940;30.280;2023-08-01T04:44:20;100539.69;;;24.23;55.34
41513;BME280;27244;59.940;30.280;2023-08-01T04:46:48;100515.09;;;24.11;55.39
41513;BME280;27244;59.940;30.280;2023-08-01T04:49:17;100537.31;;;24.22;55.40
41513;BME280;27244;59.940;30.280;2023-08-01T04:51:44;100546.47;;;24.26;55.44
41513;BME280;27244;59.940;30.280;2023-08-01T04:54:11;100541.59;;;24.26;55.39
41513;BME280;27244;59.940;30.280;2023-08-01T04:56:39;100549.72;;;24.24;55.38
41513;BME280;27244;59.940;30.280;2023-08-01T04:59:06;100543.75;;;24.22;55.56
41513;BME280;27244;59.940;30.280;2023-08-01T05:01:33;100553.56;;;24.30;55.07
41513;BME280;27244;59.940;30.280;2023-08-01T05:04:00;100528.31;;;24.14;55.28
41513;BME280;27244;59.940;30.280;2023-08-01T05:06:29;100526.38;;;24.11;54.96
41513;BME280;27244;59.940;30.280;2023-08-01T05:08:56;100533.16;;;24.14;55.11
41513;BME280;27244;59.940;30.280;2023-08-01T05:11:24;100560.75;;;24.31;55.20
41513;BME280;27244;59.940;30.280;2023-08-01T05:13:51;100541.38;;;24.21;55.13
41513;BME280;27244;59.940;30.280;2023-08-01T05:16:19;100559.31;;;24.27;54.95
41513;BME280;27244;59.940;30.280;2023-08-01T05:18:46;100533.59;;;24.12;55.29
41513;BME280;27244;59.940;30.280;2023-08-01T05:21:13;100526.81;;;24.10;55.08
41513;BME280;27244;59.940;30.280;2023-08-01T05:23:42;100538.34;;;24.15;55.06
41513;BME280;27244;59.940;30.280;2023-08-01T05:26:09;100558.84;;;24.28;54.83
41513;BME280;27244;59.940;30.280;2023-08-01T05:28:36;100549.50;;;24.19;55.03
41513;BME280;27244;59.940;30.280;2023-08-01T05:31:03;100564.84;;;24.30;54.94
41513;BME280;27244;59.940;30.280;2023-08-01T05:33:31;100561.22;;;24.30;55.04
41513;BME280;27244;59.940;30.280;2023-08-01T05:35:58;100555.59;;;24.30;55.00
41513;BME280;27244;59.940;30.280;2023-08-01T05:38:25;100532.25;;;24.17;54.89
41513;BME280;27244;59.940;30.280;2023-08-01T05:40:54;100543.63;;;24.26;55.32
41513;BME280;27244;59.940;30.280;2023-08-01T05:43:21;100559.06;;;24.34;55.02
41513;BME280;27244;59.940;30.280;2023-08-01T05:45:48;100524.59;;;24.17;55.16
41513;BME280;27244;59.940;30.280;2023-08-01T05:48:16;100514.78;;;24.09;55.23
41513;BME280;27244;59.940;30.280;2023-08-01T05:50:43;100537.22;;;24.25;55.21
41513;BME280;27244;59.940;30.280;2023-08-01T05:53:12;100536.75;;;24.27;55.28
41513;BME280;27244;59.940;30.280;2023-08-01T05:55:41;100538.00;;;24.26;55.04
41513;BME280;27244;59.940;30.280;2023-08-01T05:58:10;100534.94;;;24.20;55.35
41513;BME280;27244;59.940;30.280;2023-08-01T06:00:38;100524.78;;;24.10;55.35
41513;BME280;27244;59.940;30.280;2023-08-01T06:03:05;100521.19;;;24.10;55.41
41513;BME280;27244;59.940;30.280;2023-08-01T06:05:32;100513.88;;;24.12;55.42
41513;BME280;27244;59.940;30.280;2023-08-01T06:07:59;100521.53;;;24.12;55.08
41513;BME280;27244;59.940;30.280;2023-08-01T06:10:27;100515.53;;;24.10;55.37
41513;BME280;27244;59.940;30.280;2023-08-01T06:12:54;100536.41;;;24.25;55.24
41513;BME280;27244;59.940;30.280;2023-08-01T06:15:23;100522.22;;;24.16;55.38
41513;BME280;27244;59.940;30.280;2023-08-01T06:17:50;100513.97;;;24.09;55.50
41513;BME280;27244;59.940;30.280;2023-08-01T06:20:17;100521.19;;;24.10;55.30
41513;BME280;27244;59.940;30.280;2023-08-01T06:22:44;100556.50;;;24.27;55.26
41513;BME280;27244;59.940;30.280;2023-08-01T06:25:12;100548.03;;;24.27;55.35
41513;BME280;27244;59.940;30.280;2023-08-01T06:27:39;100555.22;;;24.28;55.33
41513;BME280;27244;59.940;30.280;2023-08-01T06:30:07;100549.72;;;24.24;55.04
41513;BME280;27244;59.940;30.280;2023-08-01T06:32:36;100555.91;;;24.32;55.26
41513;BME280;27244;59.940;30.280;2023-08-01T06:35:04;100560.63;;;24.35;55.12
41513;BME280;27244;59.940;30.280;2023-08-01T06:37:31;100561.44;;;24.35;55.06
41513;BME280;27244;59.940;30.280;2023-08-01T06:39:58;100529.78;;;24.19;55.07
41513;BME280;27244;59.940;30.280;2023-08-01T06:42:28;100546.78;;;24.28;55.33
41513;BME280;27244;59.940;30.280;2023-08-01T06:44:55;100559.53;;;24.32;55.29
41513;BME280;27244;59.940;30.280;2023-08-01T06:47:22;100532.25;;;24.17;55.24
41513;BME280;27244;59.940;30.280;2023-08-01T06:49:51;100544.06;;;24.24;55.26
41513;BME280;27244;59.940;30.280;2023-08-01T06:52:18;100557.94;;;24.31;55.33
41513;BME280;27244;59.940;30.280;2023-08-01T06:54:46;100521.19;;;24.10;55.31
41513;BME280;27244;59.940;30.280;2023-08-01T06:57:13;100555.91;;;24.32;55.33
41513;BME280;27244;59.940;30.280;2023-08-01T06:59:40;100548.28;;;24.20;55.47
41513;BME280;27244;59.940;30.280;2023-08-01T07:02:12;100568.09;;;24.41;55.28
41513;BME280;27244;59.940;30.280;2023-08-01T07:04:39;100537.13;;;24.16;55.47
41513;BME280;27244;59.940;30.280;2023-08-01T07:07:09;100555.22;;;24.28;55.33
41513;BME280;27244;59.940;30.280;2023-08-01T07:09:39;100556.25;;;24.34;55.37
41513;BME280;27244;59.940;30.280;2023-08-01T07:12:07;100555.00;;;24.35;55.26
41513;BME280;27244;59.940;30.280;2023-08-01T07:14:35;100543.06;;;24.31;55.21
41513;BME280;27244;59.940;30.280;2023-08-01T07:17:02;100562.56;;;24.38;54.84
41513;BME280;27244;59.940;30.280;2023-08-01T07:19:30;100521.88;;;24.14;55.21
41513;BME280;27244;59.940;30.280;2023-08-01T07:22:01;100527.06;;;24.15;55.35
41513;BME280;27244;59.940;30.280;2023-08-01T07:24:32;100535.41;;;24.19;55.31
41513;BME280;27244;59.940;30.280;2023-08-01T07:26:59;100562.53;;;24.63;54.55
41513;BME280;27244;59.940;30.280;2023-08-01T07:29:26;100565.28;;;24.41;54.43
41513;BME280;27244;59.940;30.280;2023-08-01T07:31:59;100540.56;;;24.33;55.39
41513;BME280;27244;59.940;30.280;2023-08-01T07:34:26;100565.38;;;24.38;54.85
41513;BME280;27244;59.940;30.280;2023-08-01T07:36:54;100547.44;;;24.32;54.48
41513;BME280;27244;59.940;30.280;2023-08-01T07:39:21;100521.88;;;24.14;54.25
41513;BME280;27244;59.940;30.280;2023-08-01T07:41:50;100538.44;;;24.24;53.91
41513;BME280;27244;59.940;30.280;2023-08-01T07:44:17;100527.06;;;24.15;53.94
41513;BME280;27244;59.940;30.280;2023-08-01T07:46:44;100543.28;;;24.24;53.91
41513;BME280;27244;59.940;30.280;2023-08-01T07:49:11;100549.03;;;24.33;53.80
41513;BME280;27244;59.940;30.280;2023-08-01T07:51:46;100546.22;;;24.33;54.20
41513;BME280;27244;59.940;30.280;2023-08-01T07:54:19;100552.66;;;24.33;53.92
41513;BME280;27244;59.940;30.280;2023-08-01T07:57:00;100565.72;;;24.53;54.06
41513;BME280;27244;59.940;30.280;2023-08-01T07:59:29;100573.03;;;24.50;54.34
41513;BME280;27244;59.940;30.280;2023-08-01T08:02:01;100528.63;;;24.29;54.02
41513;BME280;27244;59.940;30.280;2023-08-01T08:04:30;100567.31;;;24.75;53.52
41513;BME280;27244;59.940;30.280;2023-08-01T08:07:02;100572.22;;;24.49;53.95
41513;BME280;27244;59.940;30.280;2023-08-01T08:09:37;100561.63;;;24.54;53.95
41513;BME280;27244;59.940;30.280;2023-08-01T08:12:09;100568.06;;;24.54;54.33
41513;BME280;27244;59.940;30.280;2023-08-01T08:18:04;100536.75;;;24.27;54.10
41513;BME280;27244;59.940;30.280;2023-08-01T08:20:41;100540.22;;;24.43;54.14
41513;BME280;27244;59.940;30.280;2023-08-01T08:23:15;100555.19;;;24.53;54.38
41513;BME280;27244;59.940;30.280;2023-08-01T08:25:46;100556.91;;;24.50;53.96
41513;BME280;27244;59.940;30.280;2023-08-01T08:28:36;100566.34;;;24.57;54.17
41513;BME280;27244;59.940;30.280;2023-08-01T08:31:08;100572.09;;;24.53;54.38
41513;BME280;27244;59.940;30.280;2023-08-01T08:33:36;100558.84;;;24.41;54.37
41513;BME280;27244;59.940;30.280;2023-08-01T08:36:04;100545.41;;;24.32;54.86
41513;BME280;27244;59.940;30.280;2023-08-01T08:38:31;100550.81;;;24.39;54.37
41513;BME280;27244;59.940;30.280;2023-08-01T08:41:06;100563.88;;;24.59;54.34
41513;BME280;27244;59.940;30.280;2023-08-01T08:43:37;100568.41;;;24.56;54.27
41513;BME280;27244;59.940;30.280;2023-08-01T08:46:05;100542.84;;;24.38;54.54
41513;BME280;27244;59.940;30.280;2023-08-01T08:48:32;100522.88;;;24.32;54.63
41513;BME280;27244;59.940;30.280;2023-08-01T08:51:01;100534.94;;;24.33;54.76
41513;BME280;27244;59.940;30.280;2023-08-01T08:53:47;100572.88;;;24.66;54.53
41513;BME280;27244;59.940;30.280;2023-08-01T08:56:38;100528.38;;;24.36;54.76
41513;BME280;27244;59.940;30.280;2023-08-01T08:59:16;100558.44;;;24.64;54.38
41513;BME280;27244;59.940;30.280;2023-08-01T09:01:46;100538.75;;;24.39;54.84
41513;BME280;27244;59.940;30.280;2023-08-01T09:04:13;100551.69;;;24.49;55.08
41513;BME280;27244;59.940;30.280;2023-08-01T09:06:48;100552.25;;;24.57;54.68
41513;BME280;27244;59.940;30.280;2023-08-01T09:09:16;100524.34;;;24.37;54.96
41513;BME280;27244;59.940;30.280;2023-08-01T09:11:48;100545.16;;;24.52;54.86
41513;BME280;27244;59.940;30.280;2023-08-01T09:14:19;100548.66;;;24.56;54.84
41513;BME280;27244;59.940;30.280;2023-08-01T09:16:49;100522.44;;;24.34;54.97
41513;BME280;27244;59.940;30.280;2023-08-01T09:19:17;100531.97;;;24.49;54.97
41513;BME280;27244;59.940;30.280;2023-08-01T09:21:45;100554.44;;;24.53;55.07
41513;BME280;27244;59.940;30.280;2023-08-01T09:24:25;100526.00;;;24.47;54.49
41513;BME280;27244;59.940;30.280;2023-08-01T09:26:52;100523.09;;;24.38;54.92
41513;BME280;27244;59.940;30.280;2023-08-01T09:29:29;100535.13;;;24.51;54.73
41513;BME280;27244;59.940;30.280;2023-08-01T09:31:58;100539.97;;;24.50;54.94
41513;BME280;27244;59.940;30.280;2023-08-01T09:34:26;100544.69;;;24.54;54.80
41513;BME280;27244;59.940;30.280;2023-08-01T09:36:58;100510.56;;;24.39;54.87
41513;BME280;27244;59.940;30.280;2023-08-01T09:39:26;100544.94;;;24.59;55.00
41513;BME280;27244;59.940;30.280;2023-08-01T09:41:56;100531.28;;;24.58;54.89
41513;BME280;27244;59.940;30.280;2023-08-01T09:44:45;100519.53;;;24.59;54.53
41513;BME280;27244;59.940;30.280;2023-08-01T09:47:15;100512.81;;;24.44;54.85
41513;BME280;27244;59.940;30.280;2023-08-01T09:49:48;100506.50;;;24.40;55.06
41513;BME280;27244;59.940;30.280;2023-08-01T09:52:26;100515.38;;;24.51;54.83
41513;BME280;27244;59.940;30.280;2023-08-01T09:54:53;100497.84;;;24.34;55.13
41513;BME280;27244;59.940;30.280;2023-08-01T09:57:22;100530.16;;;24.55;54.77
41513;BME280;27244;59.940;30.280;2023-08-01T09:59:51;100534.56;;;24.56;55.24
41513;BME280;27244;59.940;30.280;2023-08-01T10:02:38;100525.63;;;24.58;55.16
41513;BME280;27244;59.940;30.280;2023-08-01T10:05:15;100495.56;;;24.42;55.14
41513;BME280;27244;59.940;30.280;2023-08-01T10:07:51;100524.94;;;24.66;55.03
41513;BME280;27244;59.940;30.280;2023-08-01T10:10:26;100518.22;;;24.51;54.78
41513;BME280;27244;59.940;30.280;2023-08-01T10:15:41;100534.56;;;24.56;55.22
41513;BME280;27244;59.940;30.280;2023-08-01T10:18:08;100537.81;;;24.55;55.16
41513;BME280;27244;59.940;30.280;2023-08-01T10:20:37;100520.16;;;24.41;55.16
41513;BME280;27244;59.940;30.280;2023-08-01T10:23:09;100531.06;;;24.52;55.18
41513;BME280;27244;59.940;30.280;2023-08-01T10:25:40;100527.47;;;24.52;55.25
41513;BME280;27244;59.940;30.280;2023-08-01T10:28:17;100547.50;;;24.66;55.22
41513;BME280;27244;59.940;30.280;2023-08-01T10:31:27;100506.81;;;24.55;54.91
41513;BME280;27244;59.940;30.280;2023-08-01T10:34:05;100525.72;;;24.67;54.90
41513;BME280;27244;59.940;30.280;2023-08-01T10:36:36;100514.72;;;24.47;55.35
41513;BME280;27244;59.940;30.280;2023-08-01T10:39:04;100521.81;;;24.52;55.26
41513;BME280;27244;59.940;30.280;2023-08-01T10:41:33;100542.31;;;24.65;55.37
41513;BME280;27244;59.940;30.280;2023-08-01T10:44:08;100529.00;;;24.65;55.04
41513;BME280;27244;59.940;30.280;2023-08-01T10:46:50;100534.06;;;24.70;55.00
41513;BME280;27244;59.940;30.280;2023-08-01T10:50:12;100514.69;;;24.60;55.03
41513;BME280;27244;59.940;30.280;2023-08-01T10:53:02;100528.00;;;24.59;55.02
41513;BME280;27244;59.940;30.280;2023-08-01T10:55:38;100518.75;;;24.59;55.02
41513;BME280;27244;59.940;30.280;2023-08-01T10:58:06;100538.25;;;24.66;55.55
41513;BME280;27244;59.940;30.280;2023-08-01T11:00:33;100534.63;;;24.65;55.33
41513;BME280;27244;59.940;30.280;2023-08-01T11:03:02;100542.31;;;24.65;55.71
41513;BME280;27244;59.940;30.280;2023-08-01T11:05:29;100535.44;;;24.53;55.93
41513;BME280;27244;59.940;30.280;2023-08-01T11:07:58;100547.03;;;24.68;55.83
41513;BME280;27244;59.940;30.280;2023-08-01T11:10:27;100519.13;;;24.48;56.23
41513;BME280;27244;59.940;30.280;2023-08-01T11:12:54;100519.44;;;24.50;56.12
41513;BME280;27244;59.940;30.280;2023-08-01T11:15:22;100536.13;;;24.57;56.40
41513;BME280;27244;59.940;30.280;2023-08-01T11:17:50;100542.19;;;24.68;56.29
41513;BME280;27244;59.940;30.280;2023-08-01T11:20:23;100501.72;;;24.49;56.53
41513;BME280;27244;59.940;30.280;2023-08-01T11:22:55;100532.72;;;24.62;56.23
41513;BME280;27244;59.940;30.280;2023-08-01T11:25:33;100533.94;;;24.74;55.70
41513;BME280;27244;59.940;30.280;2023-08-01T11:28:46;100524.69;;;24.73;55.17
41513;BME280;27244;59.940;30.280;2023-08-01T11:35:07;100516.78;;;24.68;55.41
41513;BME280;27244;59.940;30.280;2023-08-01T11:37:36;100532.47;;;24.69;55.76
41513;BME280;27244;59.940;30.280;2023-08-01T11:43:48;100547.44;;;24.79;55.28
41513;BME280;27244;59.940;30.280;2023-08-01T11:46:53;100534.25;;;24.76;55.28
41513;BME280;27244;59.940;30.280;2023-08-01T11:49:45;100538.44;;;24.84;55.31
41513;BME280;27244;59.940;30.280;2023-08-01T11:56:26;100508.00;;;24.66;55.16
41513;BME280;27244;59.940;30.280;2023-08-01T11:59:31;100505.56;;;24.56;55.41
41513;BME280;27244;59.940;30.280;2023-08-01T13:57:27;100468.66;;;24.63;54.04
41513;BME280;27244;59.940;30.280;2023-08-01T13:59:54;100475.00;;;24.54;53.93
41513;BME280;27244;59.940;30.280;2023-08-01T14:02:21;100458.66;;;24.49;53.78
41513;BME280;27244;59.940;30.280;2023-08-01T14:04:51;100466.88;;;24.56;53.83
41513;BME280;27244;59.940;30.280;2023-08-01T14:07:18;100483.06;;;24.65;53.81
41513;BME280;27244;59.940;30.280;2023-08-01T14:09:45;100480.25;;;24.65;53.84
41513;BME280;27244;59.940;30.280;2023-08-01T14:12:12;100483.06;;;24.65;54.43
41513;BME280;27244;59.940;30.280;2023-08-01T14:14:43;100469.34;;;24.54;54.63
41513;BME280;27244;59.940;30.280;2023-08-01T14:17:10;100478.78;;;24.60;54.69
41513;BME280;27244;59.940;30.280;2023-08-01T14:19:37;100482.63;;;24.66;54.58
41513;BME280;27244;59.940;30.280;2023-08-01T14:22:05;100471.25;;;24.57;54.38
41513;BME280;27244;59.940;30.280;2023-08-01T14:24:32;100477.31;;;24.68;54.11
41513;BME280;27244;59.940;30.280;2023-08-01T14:26:59;100478.88;;;24.69;54.15
41513;BME280;27244;59.940;30.280;2023-08-01T14:29:26;100481.97;;;24.62;54.16
41513;BME280;27244;59.940;30.280;2023-08-01T14:31:54;100466.09;;;24.56;54.45
41513;BME280;27244;59.940;30.280;2023-08-01T14:34:21;100487.00;;;24.67;54.54
41513;BME280;27244;59.940;30.280;2023-08-01T14:36:49;100478.88;;;24.69;54.36
41513;BME280;27244;59.940;30.280;2023-08-01T14:39:16;100478.09;;;24.69;54.02
41513;BME280;27244;59.940;30.280;2023-08-01T14:41:43;100478.41;;;24.71;53.94
41513;BME280;27244;59.940;30.280;2023-08-01T14:44:10;100475.59;;;24.71;53.89
41513;BME280;27244;59.940;30.280;2023-08-01T14:46:37;100482.81;;;24.72;53.89
41513;BME280;27244;59.940;30.280;2023-08-01T14:49:06;100478.22;;;24.65;54.26
41513;BME280;27244;59.940;30.280;2023-08-01T14:51:33;100472.59;;;24.65;54.26
41513;BME280;27244;59.940;30.280;2023-08-01T14:54:00;100476.50;;;24.68;54.29
41513;BME280;27244;59.940;30.280;2023-08-01T14:56:27;100476.50;;;24.68;53.92
41513;BME280;27244;59.940;30.280;2023-08-01T14:58:55;100478.22;;;24.65;54.14
41513;BME280;27244;59.940;30.280;2023-08-01T15:01:24;100477.31;;;24.68;54.01
41513;BME280;27244;59.940;30.280;2023-08-01T15:03:52;100486.44;;;24.72;54.07
41513;BME280;27244;59.940;30.280;2023-08-01T15:13:18;100484.28;;;24.76;54.46
41513;BME280;27244;59.940;30.280;2023-08-01T15:15:45;100487.53;;;24.75;55.11
41513;BME280;27244;59.940;30.280;2023-08-01T15:18:12;100482.81;;;24.72;55.02
41513;BME280;27244;59.940;30.280;2023-08-01T15:20:39;100480.34;;;24.74;55.42
41513;BME280;27244;59.940;30.280;2023-08-01T15:23:07;100483.16;;;24.74;55.19
41513;BME280;27244;59.940;30.280;2023-08-01T15:25:35;100475.84;;;24.64;55.75